This is the latest recevied weather packets stored in our database for station/object KB1RMA-13. If no packets are shown the sender has not sent any weather packets the latest 10 day(s).
| Time | Temp. | Humidity | Pressure | Rain* | Wind** | Luminosity | Snow |
|---|---|---|---|---|---|---|---|
| 1777980662 | 15.56° C | 68% | 1009.2 hPa | 0 mm | - | 207 W/m² | - |
| 1777980358 | 15.56° C | 69% | 1009.3 hPa | 0 mm | - | 199 W/m² | - |
| 1777980057 | 15.56° C | 68% | 1009.4 hPa | 0 mm | - | 182 W/m² | - |
| 1777979756 | 15° C | 70% | 1009.2 hPa | 0 mm | - | 158 W/m² | - |
| 1777979452 | 15° C | 70% | 1009.2 hPa | 0 mm | - | 158 W/m² | - |
| 1777979149 | 15° C | 70% | 1009.3 hPa | 0 mm | - | 143 W/m² | - |
| 1777978845 | 14.44° C | 70% | 1009.4 hPa | 0 mm | - | 128 W/m² | - |
| 1777978542 | 14.44° C | 70% | 1009.2 hPa | 0 mm | - | 121 W/m² | - |
| 1777978238 | 14.44° C | 71% | 1009.3 hPa | 0 mm | - | 113 W/m² | - |
| 1777977935 | 13.89° C | 71% | 1009.2 hPa | 0 mm | - | 94 W/m² | - |
| 1777977633 | 13.89° C | 71% | 1009.3 hPa | 0 mm | - | 64 W/m² | - |
| 1777977329 | 13.89° C | 72% | 1009.4 hPa | 0 mm | - | 73 W/m² | - |
| 1777977027 | 13.33° C | 73% | 1009.4 hPa | 0 mm | - | 60 W/m² | - |
| 1777976724 | 13.33° C | 72% | 1009.4 hPa | 0 mm | - | 37 W/m² | - |
| 1777976421 | 13.33° C | 72% | 1009.3 hPa | 0 mm | - | 33 W/m² | - |
| 1777976120 | 13.33° C | 72% | 1009.3 hPa | 0 mm | - | 33 W/m² | - |
| 1777975816 | 12.78° C | 73% | 1009.3 hPa | 0 mm | - | 27 W/m² | - |
| 1777975513 | 12.78° C | 73% | 1009.4 hPa | 0 mm | - | 24 W/m² | - |
| 1777975210 | 12.22° C | 74% | 1009.3 hPa | 0 mm | - | 19 W/m² | - |
| 1777974906 | 12.22° C | 74% | 1009.3 hPa | 0 mm | - | 14 W/m² | - |
| 1777974601 | 12.78° C | 74% | 1009.4 hPa | 0 mm | - | 10 W/m² | - |
| 1777974299 | 12.22° C | 74% | 1009.2 hPa | 0 mm | - | 8 W/m² | - |
| 1777973995 | 12.22° C | 74% | 1009.3 hPa | 0 mm | - | 5 W/m² | - |
| 1777973692 | 12.22° C | 73% | 1009.4 hPa | 0 mm | - | 4 W/m² | - |
| 1777973389 | 12.22° C | 74% | 1009.4 hPa | 0 mm | - | 2 W/m² | - |
* Rain latest hour (hover to see other rain measurements)
** Current wind speed in m/s (hover to see current wind gust speed)